Apus — XUCT7 — position and weather

sailwx.info

Track history (hours):
 
Tides and Currents Weather Stations Pressure Air Temp Water Temp Dewpoint Dewpoint Depression Visibility Wind Speed Wind Dir Waves Ship Positions

Apus

Last reported at 2015-May-04 18:33 UTC. Time now 2015-May-05 13:16 UTC.
Position N 41°44' E 029°10'.

Length 93 m; draft 5.6 m.

Type: Cargo ship. MMSI: 515102000.

Date/timePositionNaut miles runAvg speedWind from/ knotsBaromVisibWave heightAir tempDewpointWater temp
2015-May-04 18:33N 41°44' E 029°10'1111.0
2015-May-04 17:33N 41°33' E 029°12'1111.2
2015-May-04 16:33N 41°22' E 029°13'  
2015-Apr-30 00:16N 32°22' E 015°13'0 0.0
2015-Apr-29 21:16N 32°22' E 015°13'0 0.0
2015-Apr-29 20:28N 32°22' E 015°13'0 0.0
2015-Apr-29 19:28N 32°22' E 015°13'458 9.7
2015-Apr-27 20:27N 36°08' E 023°16'1412.2
2015-Apr-27 19:19N 36°18' E 023°27'912.3
2015-Apr-27 18:34N 36°25' E 023°35'1212.1
2015-Apr-27 17:34N 36°34' E 023°45'1212.1
2015-Apr-27 16:33N 36°42' E 023°56'1211.8
2015-Apr-27 15:33N 36°53' E 024°03'1312.1
2015-Apr-27 14:28N 37°05' E 024°09'2412.2
2015-Apr-27 12:31N 37°27' E 024°19'15912.2
2015-Apr-26 23:32N 39°49' E 025°50'  
Track history (hours):
 
Tides and Currents Weather Stations Pressure Air Temp Water Temp Dewpoint Dewpoint Depression Visibility Wind Speed Wind Dir Waves Ship Positions

Apus

Last reported at 2015-May-04 18:33 UTC. Time now 2015-May-05 13:16 UTC.
Position N 41°44' E 029°10'.

Length 93 m; draft 5.6 m.

Type: Cargo ship. MMSI: 515102000.

Date/timePositionNaut miles runAvg speedWind from/ knotsBaromVisibWave heightAir tempDewpointWater temp
2015-May-04 18:33N 41°44' E 029°10'1111.0
2015-May-04 17:33N 41°33' E 029°12'1111.2
2015-May-04 16:33N 41°22' E 029°13'  
2015-Apr-30 00:16N 32°22' E 015°13'0 0.0
2015-Apr-29 21:16N 32°22' E 015°13'0 0.0
2015-Apr-29 20:28N 32°22' E 015°13'0 0.0
2015-Apr-29 19:28N 32°22' E 015°13'458 9.7
2015-Apr-27 20:27N 36°08' E 023°16'1412.2
2015-Apr-27 19:19N 36°18' E 023°27'912.3
2015-Apr-27 18:34N 36°25' E 023°35'1212.1
2015-Apr-27 17:34N 36°34' E 023°45'1212.1
2015-Apr-27 16:33N 36°42' E 023°56'1211.8
2015-Apr-27 15:33N 36°53' E 024°03'1312.1
2015-Apr-27 14:28N 37°05' E 024°09'2412.2
2015-Apr-27 12:31N 37°27' E 024°19'15912.2
2015-Apr-26 23:32N 39°49' E 025°50'  

Dump ship's entire track history